createdAt,value
2019-04-03T00:03:43.043Z,13.40
2019-04-03T00:08:47.209Z,17.77
2019-04-03T00:13:51.418Z,14.23
2019-04-03T00:18:55.636Z,15.53
2019-04-03T00:23:59.853Z,14.77
2019-04-03T00:29:04.132Z,14.30
2019-04-03T00:34:08.356Z,14.10
2019-04-03T00:39:12.581Z,13.43
2019-04-03T00:44:17.896Z,14.03
2019-04-03T00:49:22.127Z,16.50
2019-04-03T00:54:26.950Z,14.28
2019-04-03T00:59:31.501Z,13.57
2019-04-03T01:04:35.737Z,14.13
2019-04-03T01:09:39.985Z,13.70
2019-04-03T01:14:44.228Z,15.40
2019-04-03T01:19:48.465Z,14.93
2019-04-03T01:24:52.702Z,14.93
2019-04-03T01:29:57.090Z,14.57
2019-04-03T01:35:01.367Z,14.63
2019-04-03T01:40:06.335Z,14.50
2019-04-03T01:45:10.932Z,14.90
2019-04-03T01:50:15.186Z,14.80
2019-04-03T01:55:19.423Z,14.87
2019-04-03T02:00:23.651Z,15.27
2019-04-03T02:05:28.255Z,15.70
2019-04-03T02:10:33.691Z,14.18
2019-04-03T02:15:37.935Z,14.47
2019-04-03T02:20:42.172Z,15.30
2019-04-03T02:25:46.407Z,15.93
2019-04-03T02:30:50.643Z,14.77
2019-04-03T02:35:54.926Z,15.40
2019-04-03T02:40:59.460Z,14.67
2019-04-03T02:46:03.895Z,14.30
2019-04-03T02:51:08.540Z,15.10
2019-04-03T02:56:13.831Z,15.43
2019-04-03T03:01:18.207Z,15.37
2019-04-03T03:06:22.753Z,14.90
2019-04-03T03:11:27.895Z,15.07
2019-04-03T03:16:32.229Z,15.57
2019-04-03T03:21:43.859Z,15.43
2019-04-03T03:26:47.225Z,16.03
2019-04-03T03:32:11.332Z,14.83
2019-04-03T03:37:00.121Z,15.13
2019-04-03T03:42:04.179Z,16.13
2019-04-03T03:47:09.243Z,15.37
2019-04-03T03:52:15.767Z,16.23
2019-04-03T03:57:21.040Z,16.70
2019-04-03T04:02:25.668Z,17.63
2019-04-03T04:07:30.234Z,16.93
2019-04-03T04:12:39.788Z,17.10
2019-04-03T04:17:41.433Z,18.67
2019-04-03T04:22:49.007Z,16.70
2019-04-03T04:27:52.199Z,18.17
2019-04-03T04:32:56.638Z,18.40
2019-04-03T04:38:01.030Z,17.10
2019-04-03T04:43:07.686Z,18.63
2019-04-03T04:48:11.444Z,18.73
2019-04-03T04:53:15.677Z,18.70
2019-04-03T04:58:19.915Z,17.90
2019-04-03T05:03:24.169Z,18.53
2019-04-03T05:08:28.412Z,19.30
2019-04-03T05:13:32.639Z,19.57
2019-04-03T05:18:37.085Z,19.20
2019-04-03T05:23:41.571Z,19.80
2019-04-03T05:28:55.767Z,19.27
2019-04-03T05:33:52.079Z,20.47
2019-04-03T05:38:56.314Z,19.20
2019-04-03T05:44:02.374Z,19.10
2019-04-03T05:49:06.641Z,20.53
2019-04-03T05:54:13.613Z,20.13
2019-04-03T05:59:16.915Z,20.90
2019-04-03T06:04:21.363Z,20.07
2019-04-03T06:09:25.689Z,21.93
2019-04-03T06:14:30.052Z,21.20
2019-04-03T06:19:35.423Z,19.43
2019-04-03T06:24:40.382Z,20.10
2019-04-03T06:29:44.899Z,20.60
2019-04-03T06:34:49.146Z,21.17
2019-04-03T06:39:54.861Z,19.10
2019-04-03T06:44:59.208Z,20.73
2019-04-03T06:50:03.408Z,20.70
2019-04-03T06:55:07.659Z,21.20
2019-04-03T07:00:12.402Z,21.53
2019-04-03T07:05:16.657Z,20.47
2019-04-03T07:10:25.688Z,22.27
2019-04-03T07:15:26.874Z,21.95
2019-04-03T07:20:31.470Z,22.50
2019-04-03T07:25:35.872Z,22.03
2019-04-03T07:30:40.147Z,21.68
2019-04-03T07:35:44.563Z,20.72
2019-04-03T07:40:50.961Z,19.70
2019-04-03T07:45:54.811Z,20.62
2019-04-03T07:50:59.054Z,18.95
2019-04-03T07:56:03.289Z,19.45
2019-04-03T08:01:09.547Z,20.32
2019-04-03T08:06:13.579Z,18.85
2019-04-03T08:11:17.921Z,19.20
2019-04-03T08:16:22.157Z,18.77
2019-04-03T08:21:28.068Z,19.27
2019-04-03T08:26:32.488Z,18.50
2019-04-03T08:31:36.725Z,18.85
2019-04-03T08:36:40.968Z,19.10
2019-04-03T08:41:45.447Z,17.85
2019-04-03T08:46:49.867Z,18.70
2019-04-03T08:51:54.313Z,19.23
2019-04-03T08:56:58.548Z,17.82
2019-04-03T09:02:03.135Z,17.00
2019-04-03T09:07:07.690Z,17.48
2019-04-03T09:12:11.929Z,17.50
2019-04-03T09:17:16.202Z,17.17
2019-04-03T09:22:21.600Z,18.67
2019-04-03T09:27:26.477Z,18.73
2019-04-03T09:32:30.725Z,17.92
2019-04-03T09:37:37.779Z,16.75
2019-04-03T09:42:40.942Z,17.82
2019-04-03T09:47:45.181Z,18.20
2019-04-03T09:52:50.499Z,16.82
2019-04-03T09:57:54.951Z,16.55
2019-04-03T10:02:59.227Z,15.45
2019-04-03T10:08:03.652Z,15.35
2019-04-03T10:13:07.995Z,16.00
2019-04-03T10:18:12.247Z,16.95
2019-04-03T10:23:16.700Z,16.42
2019-04-03T10:28:21.117Z,17.32
2019-04-03T10:33:25.402Z,15.68
2019-04-03T10:38:29.629Z,16.15
2019-04-03T10:43:36.294Z,16.17
2019-04-03T10:48:40.137Z,15.70
2019-04-03T10:53:44.484Z,15.23
2019-04-03T10:58:51.691Z,15.10
2019-04-03T11:03:56.392Z,16.50
2019-04-03T11:09:00.680Z,14.95
2019-04-03T11:14:07.797Z,13.62
2019-04-03T11:19:11.596Z,14.43
2019-04-03T11:24:15.864Z,15.38
2019-04-03T11:29:20.657Z,13.80
2019-04-03T11:34:25.039Z,14.53
2019-04-03T11:39:29.281Z,13.98
2019-04-03T11:44:33.629Z,13.68
2019-04-03T11:49:38.037Z,14.00
2019-04-03T11:54:42.344Z,15.00
2019-04-03T11:59:47.394Z,14.70
2019-04-03T12:04:52.244Z,16.50
2019-04-03T12:09:56.526Z,17.07
2019-04-03T12:15:00.747Z,17.73
2019-04-03T12:20:08.697Z,16.65
2019-04-03T12:25:12.161Z,17.75
2019-04-03T12:30:17.510Z,16.93
2019-04-03T12:35:21.803Z,16.62
2019-04-03T12:40:26.162Z,17.10
2019-04-03T12:45:30.501Z,18.25
2019-04-03T12:50:34.735Z,19.52
2019-04-03T12:55:42.029Z,16.93
2019-04-03T13:00:46.165Z,17.05
2019-04-03T13:05:50.874Z,18.70
2019-04-03T13:10:55.132Z,16.27
2019-04-03T13:15:59.432Z,16.95
2019-04-03T13:21:03.724Z,20.23
2019-04-03T13:26:07.994Z,17.90
2019-04-03T13:31:12.911Z,17.48
2019-04-03T13:36:18.699Z,18.35
2019-04-03T13:41:23.983Z,17.32
2019-04-03T13:46:28.194Z,16.37
2019-04-03T13:51:32.442Z,16.48
2019-04-03T13:56:36.991Z,15.53
2019-04-03T14:01:41.805Z,15.53
2019-04-03T14:06:46.210Z,15.55
2019-04-03T14:11:50.461Z,16.75
2019-04-03T14:16:54.843Z,16.17
2019-04-03T14:22:00.617Z,16.70
2019-04-03T14:27:17.391Z,17.00
2019-04-03T14:32:13.979Z,16.12
2019-04-03T14:37:17.449Z,15.72
2019-04-03T14:42:22.009Z,17.17
2019-04-03T14:47:27.869Z,16.65
2019-04-03T14:52:32.936Z,17.50
2019-04-03T14:57:37.521Z,16.25
2019-04-03T15:02:42.219Z,18.50
2019-04-03T15:07:49.043Z,17.48
2019-04-03T15:12:52.673Z,17.17
2019-04-03T15:17:57.017Z,17.48
2019-04-03T15:23:03.932Z,17.55
2019-04-03T15:28:07.346Z,16.30
2019-04-03T15:33:11.653Z,15.93
2019-04-03T15:38:18.628Z,16.93
2019-04-03T15:43:22.320Z,16.02
2019-04-03T15:48:27.148Z,16.37
2019-04-03T15:53:31.486Z,15.85
2019-04-03T15:58:37.765Z,14.90
2019-04-03T16:03:42.090Z,15.55
2019-04-03T16:08:47.894Z,15.83
2019-04-03T16:13:52.653Z,15.83
2019-04-03T16:18:57.280Z,13.72
2019-04-03T16:24:01.649Z,15.30
2019-04-03T16:29:07.336Z,13.72
2019-04-03T16:34:13.317Z,13.65
2019-04-03T16:39:18.002Z,14.50
2019-04-03T16:44:24.077Z,15.15
2019-04-03T16:49:28.718Z,14.40
2019-04-03T16:54:33.695Z,14.28
2019-04-03T16:59:38.594Z,12.68
2019-04-03T17:04:42.912Z,14.65
2019-04-03T17:09:47.680Z,13.85
2019-04-03T17:14:52.896Z,13.85
2019-04-03T17:19:58.013Z,14.50
2019-04-03T17:25:02.454Z,14.73
2019-04-03T17:30:08.130Z,13.72
2019-04-03T17:35:14.121Z,14.95
2019-04-03T17:40:19.997Z,14.58
2019-04-03T17:45:24.351Z,14.78
2019-04-03T17:50:29.705Z,14.45
2019-04-03T17:55:34.825Z,16.37
2019-04-03T18:00:39.193Z,15.78
2019-04-03T18:05:43.473Z,15.40
2019-04-03T18:10:47.764Z,14.35
2019-04-03T18:15:53.168Z,15.48
2019-04-03T18:20:57.984Z,15.23
2019-04-03T18:26:02.272Z,14.65
2019-04-03T18:31:06.660Z,15.70
2019-04-03T18:36:11.615Z,15.68
2019-04-03T18:41:16.991Z,14.38
2019-04-03T18:46:31.913Z,14.87
2019-04-03T18:51:28.623Z,15.20
2019-04-03T18:56:33.227Z,15.50
2019-04-03T19:01:38.024Z,16.82
2019-04-03T19:06:44.832Z,15.13
2019-04-03T19:11:51.450Z,15.65
2019-04-03T19:16:56.503Z,15.83
2019-04-03T19:22:01.632Z,16.02
2019-04-03T19:27:06.188Z,18.25
2019-04-03T19:32:12.214Z,17.42
2019-04-03T19:37:17.377Z,16.73
2019-04-03T19:42:22.002Z,17.35
2019-04-03T19:47:26.884Z,17.35
2019-04-03T19:52:31.713Z,16.05
2019-04-03T19:57:36.808Z,16.60
2019-04-03T20:02:43.091Z,17.07
2019-04-03T20:07:48.277Z,17.85
2019-04-03T20:12:53.297Z,16.62
2019-04-03T20:17:57.772Z,17.87
2019-04-03T20:23:02.388Z,17.70
2019-04-03T20:28:06.770Z,18.12
2019-04-03T20:33:11.690Z,17.70
2019-04-03T20:38:16.606Z,18.77
2019-04-03T20:43:20.859Z,16.60
2019-04-03T20:48:28.024Z,19.62
2019-04-03T20:53:31.092Z,18.07
2019-04-03T20:58:35.365Z,17.85
2019-04-03T21:03:39.612Z,18.65
2019-04-03T21:08:43.865Z,19.00
2019-04-03T21:13:48.124Z,18.20
2019-04-03T21:18:52.566Z,17.30
2019-04-03T21:23:56.824Z,17.42
2019-04-03T21:29:01.115Z,18.37
2019-04-03T21:34:05.679Z,16.97
2019-04-03T21:39:12.607Z,18.12
2019-04-03T21:44:15.912Z,18.52
2019-04-03T21:49:20.154Z,17.73
2019-04-03T21:54:24.880Z,17.80
2019-04-03T21:59:30.537Z,17.25
2019-04-03T22:04:34.748Z,17.62
2019-04-03T22:09:39.004Z,17.48
2019-04-03T22:14:43.468Z,17.57
2019-04-03T22:19:47.769Z,17.45
2019-04-03T22:24:52.011Z,17.62
2019-04-03T22:29:56.247Z,17.92
2019-04-03T22:35:01.035Z,18.65
2019-04-03T22:40:09.917Z,17.02
2019-04-03T22:45:12.628Z,16.70
2019-04-03T22:50:16.899Z,17.50
2019-04-03T22:55:21.163Z,30.45
2019-04-03T23:00:25.864Z,31.02
2019-04-03T23:05:30.620Z,19.23
2019-04-03T23:10:35.458Z,17.15
2019-04-03T23:15:39.935Z,17.05
2019-04-03T23:20:44.590Z,16.80
2019-04-03T23:25:48.885Z,16.80
2019-04-03T23:30:53.181Z,16.40
2019-04-03T23:35:57.481Z,15.88
2019-04-03T23:41:01.801Z,14.53
2019-04-03T23:46:06.096Z,26.95
2019-04-03T23:51:22.371Z,30.20
2019-04-03T23:56:16.535Z,14.75
